sensor_id;sensor_type;location;lat;lon;timestamp;pressure;altitude;pressure_sealevel;temperature;humidity
2397;BME280;1209;48.410;9.054;2022-12-20T00:02:04;96751.72;;;1.93;100.00
2397;BME280;1209;48.410;9.054;2022-12-20T00:04:29;96750.81;;;1.81;100.00
2397;BME280;1209;48.410;9.054;2022-12-20T00:06:55;96748.16;;;1.70;100.00
2397;BME280;1209;48.410;9.054;2022-12-20T00:09:20;96743.97;;;1.93;100.00
2397;BME280;1209;48.410;9.054;2022-12-20T00:11:46;96754.66;;;2.00;100.00
2397;BME280;1209;48.410;9.054;2022-12-20T00:14:11;96756.13;;;2.15;100.00
2397;BME280;1209;48.410;9.054;2022-12-20T00:16:37;96753.44;;;2.40;100.00
2397;BME280;1209;48.410;9.054;2022-12-20T00:19:05;96756.78;;;2.65;100.00
2397;BME280;1209;48.410;9.054;2022-12-20T00:21:32;96750.78;;;2.53;100.00
2397;BME280;1209;48.410;9.054;2022-12-20T00:23:58;96760.34;;;2.40;100.00
2397;BME280;1209;48.410;9.054;2022-12-20T00:26:26;96751.50;;;2.31;100.00
2397;BME280;1209;48.410;9.054;2022-12-20T00:28:52;96735.78;;;2.23;100.00
2397;BME280;1209;48.410;9.054;2022-12-20T00:31:19;96735.91;;;2.21;100.00
2397;BME280;1209;48.410;9.054;2022-12-20T00:33:47;96739.03;;;2.14;100.00
2397;BME280;1209;48.410;9.054;2022-12-20T00:36:13;96746.50;;;2.06;100.00
2397;BME280;1209;48.410;9.054;2022-12-20T00:38:39;96749.78;;;2.08;100.00
2397;BME280;1209;48.410;9.054;2022-12-20T00:43:33;96734.31;;;2.08;100.00
2397;BME280;1209;48.410;9.054;2022-12-20T00:45:58;96726.19;;;1.90;100.00
2397;BME280;1209;48.410;9.054;2022-12-20T00:48:24;96722.97;;;2.10;100.00
2397;BME280;1209;48.410;9.054;2022-12-20T00:50:50;96727.16;;;2.00;100.00
2397;BME280;1209;48.410;9.054;2022-12-20T00:53:15;96725.84;;;1.95;100.00
2397;BME280;1209;48.410;9.054;2022-12-20T00:55:42;96722.81;;;2.01;100.00
2397;BME280;1209;48.410;9.054;2022-12-20T00:58:08;96724.69;;;1.99;100.00
2397;BME280;1209;48.410;9.054;2022-12-20T01:00:33;96725.88;;;2.06;100.00
2397;BME280;1209;48.410;9.054;2022-12-20T01:02:59;96730.06;;;1.96;100.00
2397;BME280;1209;48.410;9.054;2022-12-20T01:05:24;96730.28;;;1.93;100.00
2397;BME280;1209;48.410;9.054;2022-12-20T01:07:49;96731.97;;;2.05;100.00
2397;BME280;1209;48.410;9.054;2022-12-20T01:10:15;96723.75;;;2.00;100.00
2397;BME280;1209;48.410;9.054;2022-12-20T01:12:40;96732.91;;;2.04;100.00
2397;BME280;1209;48.410;9.054;2022-12-20T01:15:06;96740.47;;;1.94;100.00
2397;BME280;1209;48.410;9.054;2022-12-20T01:17:32;96740.59;;;1.93;100.00
2397;BME280;1209;48.410;9.054;2022-12-20T01:19:57;96750.25;;;1.89;100.00
2397;BME280;1209;48.410;9.054;2022-12-20T01:22:22;96750.56;;;1.97;100.00
2397;BME280;1209;48.410;9.054;2022-12-20T01:24:48;96764.84;;;2.01;100.00
2397;BME280;1209;48.410;9.054;2022-12-20T01:27:13;96751.94;;;1.90;100.00
2397;BME280;1209;48.410;9.054;2022-12-20T01:29:38;96763.31;;;1.99;100.00
2397;BME280;1209;48.410;9.054;2022-12-20T01:32:04;96755.97;;;2.05;100.00
2397;BME280;1209;48.410;9.054;2022-12-20T01:34:29;96754.66;;;2.00;100.00
2397;BME280;1209;48.410;9.054;2022-12-20T01:36:54;96757.69;;;1.81;100.00
2397;BME280;1209;48.410;9.054;2022-12-20T01:39:20;96757.25;;;1.87;100.00
2397;BME280;1209;48.410;9.054;2022-12-20T01:41:45;96750.91;;;1.80;100.00
2397;BME280;1209;48.410;9.054;2022-12-20T01:46:43;96749.03;;;1.82;100.00
2397;BME280;1209;48.410;9.054;2022-12-20T01:49:13;96757.91;;;1.91;100.00
2397;BME280;1209;48.410;9.054;2022-12-20T01:51:43;96750.88;;;1.93;100.00
2397;BME280;1209;48.410;9.054;2022-12-20T01:54:17;96750.25;;;1.89;100.00
2397;BME280;1209;48.410;9.054;2022-12-20T01:56:47;96739.94;;;1.89;100.00
2397;BME280;1209;48.410;9.054;2022-12-20T01:59:14;96729.03;;;1.98;100.00
2397;BME280;1209;48.410;9.054;2022-12-20T02:01:41;96720.00;;;1.80;100.00
2397;BME280;1209;48.410;9.054;2022-12-20T02:04:06;96708.66;;;1.95;100.00
2397;BME280;1209;48.410;9.054;2022-12-20T02:06:32;96711.16;;;2.08;100.00
2397;BME280;1209;48.410;9.054;2022-12-20T02:08:59;96687.25;;;2.06;100.00
2397;BME280;1209;48.410;9.054;2022-12-20T02:11:36;96675.69;;;2.11;100.00
2397;BME280;1209;48.410;9.054;2022-12-20T02:14:30;96675.69;;;2.11;100.00
2397;BME280;1209;48.410;9.054;2022-12-20T02:28:42;96672.09;;;1.90;100.00
2397;BME280;1209;48.410;9.054;2022-12-20T02:31:14;96668.25;;;1.96;100.00
2397;BME280;1209;48.410;9.054;2022-12-20T02:33:44;96664.06;;;2.06;100.00
2397;BME280;1209;48.410;9.054;2022-12-20T02:36:15;96669.47;;;2.03;100.00
2397;BME280;1209;48.410;9.054;2022-12-20T02:38:40;96669.13;;;2.07;100.00
2397;BME280;1209;48.410;9.054;2022-12-20T02:44:01;96670.88;;;2.07;100.00
2397;BME280;1209;48.410;9.054;2022-12-20T02:46:46;96672.09;;;1.90;100.00
2397;BME280;1209;48.410;9.054;2022-12-20T02:49:16;96660.31;;;1.99;100.00
2397;BME280;1209;48.410;9.054;2022-12-20T02:51:46;96676.44;;;1.89;100.00
2397;BME280;1209;48.410;9.054;2022-12-20T02:54:11;96670.66;;;1.86;100.00
2397;BME280;1209;48.410;9.054;2022-12-20T02:56:41;96674.59;;;2.03;100.00
2397;BME280;1209;48.410;9.054;2022-12-20T02:59:13;96683.88;;;2.05;100.00
2397;BME280;1209;48.410;9.054;2022-12-20T03:01:46;96676.03;;;2.07;100.00
2397;BME280;1209;48.410;9.054;2022-12-20T03:04:14;96668.28;;;2.07;100.00
2397;BME280;1209;48.410;9.054;2022-12-20T03:06:55;96656.47;;;2.04;100.00
2397;BME280;1209;48.410;9.054;2022-12-20T03:09:21;96664.91;;;2.06;100.00
2397;BME280;1209;48.410;9.054;2022-12-20T03:11:46;96658.41;;;1.89;100.00
2397;BME280;1209;48.410;9.054;2022-12-20T03:14:11;96655.16;;;1.99;100.00
2397;BME280;1209;48.410;9.054;2022-12-20T03:16:36;96648.84;;;2.03;100.00
2397;BME280;1209;48.410;9.054;2022-12-20T03:19:02;96641.25;;;2.01;100.00
2397;BME280;1209;48.410;9.054;2022-12-20T03:21:27;96637.50;;;2.05;100.00
2397;BME280;1209;48.410;9.054;2022-12-20T03:23:52;96641.38;;;2.11;100.00
2397;BME280;1209;48.410;9.054;2022-12-20T03:26:18;96639.03;;;2.08;100.00
2397;BME280;1209;48.410;9.054;2022-12-20T03:28:43;96632.13;;;2.08;100.00
2397;BME280;1209;48.410;9.054;2022-12-20T03:31:08;96639.50;;;2.13;100.00
2397;BME280;1209;48.410;9.054;2022-12-20T03:33:33;96634.94;;;2.05;100.00
2397;BME280;1209;48.410;9.054;2022-12-20T03:35:59;96649.09;;;2.11;100.00
2397;BME280;1209;48.410;9.054;2022-12-20T03:38:24;96640.91;;;2.06;100.00
2397;BME280;1209;48.410;9.054;2022-12-20T03:40:49;96635.78;;;1.82;100.00
2397;BME280;1209;48.410;9.054;2022-12-20T03:43:14;96635.94;;;1.92;100.00
2397;BME280;1209;48.410;9.054;2022-12-20T03:45:40;96628.72;;;1.97;100.00
2397;BME280;1209;48.410;9.054;2022-12-20T03:48:05;96625.44;;;2.06;100.00
2397;BME280;1209;48.410;9.054;2022-12-20T03:50:30;96629.28;;;2.00;100.00
2397;BME280;1209;48.410;9.054;2022-12-20T03:52:55;96625.53;;;1.93;100.00
2397;BME280;1209;48.410;9.054;2022-12-20T03:55:21;96619.44;;;1.94;100.00
2397;BME280;1209;48.410;9.054;2022-12-20T03:57:46;96621.63;;;1.87;100.00
2397;BME280;1209;48.410;9.054;2022-12-20T04:00:12;96616.69;;;2.08;100.00
2397;BME280;1209;48.410;9.054;2022-12-20T04:02:38;96620.06;;;2.09;100.00
2397;BME280;1209;48.410;9.054;2022-12-20T04:05:03;96622.88;;;2.06;100.00
2397;BME280;1209;48.410;9.054;2022-12-20T04:07:29;96626.16;;;2.08;100.00
2397;BME280;1209;48.410;9.054;2022-12-20T04:09:54;96627.06;;;1.96;100.00
2397;BME280;1209;48.410;9.054;2022-12-20T04:12:19;96620.53;;;2.03;100.00
2397;BME280;1209;48.410;9.054;2022-12-20T04:14:44;96619.13;;;2.10;100.00
2397;BME280;1209;48.410;9.054;2022-12-20T04:17:10;96631.19;;;2.09;100.00
2397;BME280;1209;48.410;9.054;2022-12-20T04:19:35;96622.63;;;1.98;100.00
2397;BME280;1209;48.410;9.054;2022-12-20T04:22:00;96623.00;;;2.04;100.00
2397;BME280;1209;48.410;9.054;2022-12-20T04:24:26;96628.72;;;2.08;100.00
2397;BME280;1209;48.410;9.054;2022-12-20T04:26:51;96631.31;;;2.08;100.00
2397;BME280;1209;48.410;9.054;2022-12-20T04:29:16;96631.19;;;2.09;100.00
2397;BME280;1209;48.410;9.054;2022-12-20T04:31:41;96626.50;;;2.03;100.00
2397;BME280;1209;48.410;9.054;2022-12-20T04:34:07;96622.31;;;2.13;100.00
2397;BME280;1209;48.410;9.054;2022-12-20T04:36:32;96614.69;;;2.12;100.00
2397;BME280;1209;48.410;9.054;2022-12-20T04:38:58;96606.97;;;2.12;100.00
2397;BME280;1209;48.410;9.054;2022-12-20T04:41:23;96618.91;;;2.13;100.00
2397;BME280;1209;48.410;9.054;2022-12-20T04:43:54;96615.84;;;2.08;100.00
2397;BME280;1209;48.410;9.054;2022-12-20T04:46:21;96614.56;;;2.13;100.00
2397;BME280;1209;48.410;9.054;2022-12-20T04:48:46;96607.66;;;2.03;100.00
2397;BME280;1209;48.410;9.054;2022-12-20T04:51:11;96602.38;;;2.04;100.00
2397;BME280;1209;48.410;9.054;2022-12-20T04:53:37;96596.06;;;2.08;100.00
2397;BME280;1209;48.410;9.054;2022-12-20T04:56:23;96596.91;;;2.20;100.00
2397;BME280;1209;48.410;9.054;2022-12-20T04:58:51;96593.38;;;2.21;100.00
2397;BME280;1209;48.410;9.054;2022-12-20T05:01:17;96590.34;;;2.16;100.00
2397;BME280;1209;48.410;9.054;2022-12-20T05:03:43;96589.25;;;1.96;100.00
2397;BME280;1209;48.410;9.054;2022-12-20T05:06:09;96575.00;;;2.03;100.00
2397;BME280;1209;48.410;9.054;2022-12-20T05:08:35;96576.16;;;2.10;100.00
2397;BME280;1209;48.410;9.054;2022-12-20T05:11:00;96578.50;;;2.13;100.00
2397;BME280;1209;48.410;9.054;2022-12-20T05:13:26;96581.44;;;2.20;100.00
2397;BME280;1209;48.410;9.054;2022-12-20T05:15:52;96580.28;;;2.24;100.00
2397;BME280;1209;48.410;9.054;2022-12-20T05:18:18;96582.97;;;2.22;100.00
2397;BME280;1209;48.410;9.054;2022-12-20T05:20:44;96576.19;;;2.21;100.00
2397;BME280;1209;48.410;9.054;2022-12-20T05:23:09;96581.66;;;2.06;100.00
2397;BME280;1209;48.410;9.054;2022-12-20T05:25:54;96582.38;;;2.08;100.00
2397;BME280;1209;48.410;9.054;2022-12-20T05:28:38;96575.94;;;2.13;100.00
2397;BME280;1209;48.410;9.054;2022-12-20T05:31:03;96568.09;;;2.04;100.00
2397;BME280;1209;48.410;9.054;2022-12-20T05:33:28;96559.91;;;2.10;100.00
2397;BME280;1209;48.410;9.054;2022-12-20T05:35:54;96559.91;;;2.10;100.00
2397;BME280;1209;48.410;9.054;2022-12-20T05:38:20;96559.19;;;2.19;100.00
2397;BME280;1209;48.410;9.054;2022-12-20T05:40:47;96551.47;;;2.19;100.00
2397;BME280;1209;48.410;9.054;2022-12-20T05:43:13;96557.56;;;2.29;100.00
2397;BME280;1209;48.410;9.054;2022-12-20T05:45:39;96553.47;;;2.27;100.00
2397;BME280;1209;48.410;9.054;2022-12-20T05:48:05;96552.88;;;2.23;100.00
2397;BME280;1209;48.410;9.054;2022-12-20T05:50:31;96547.59;;;2.25;100.00
2397;BME280;1209;48.410;9.054;2022-12-20T05:52:56;96547.13;;;2.31;100.00
2397;BME280;1209;48.410;9.054;2022-12-20T05:55:21;96542.69;;;2.33;100.00
2397;BME280;1209;48.410;9.054;2022-12-20T05:57:47;96544.31;;;2.11;100.00
2397;BME280;1209;48.410;9.054;2022-12-20T06:00:12;96544.69;;;2.18;100.00
2397;BME280;1209;48.410;9.054;2022-12-20T06:02:39;96543.03;;;2.28;100.00
2397;BME280;1209;48.410;9.054;2022-12-20T06:05:04;96544.56;;;2.19;100.00
2397;BME280;1209;48.410;9.054;2022-12-20T06:07:30;96556.38;;;2.22;100.00
2397;BME280;1209;48.410;9.054;2022-12-20T06:09:56;96555.22;;;2.15;100.00
2397;BME280;1209;48.410;9.054;2022-12-20T06:12:22;96560.72;;;2.21;100.00
2397;BME280;1209;48.410;9.054;2022-12-20T06:14:47;96558.16;;;2.33;100.00
2397;BME280;1209;48.410;9.054;2022-12-20T06:17:13;96559.66;;;2.35;100.00
2397;BME280;1209;48.410;9.054;2022-12-20T06:19:38;96557.81;;;2.37;100.00
2397;BME280;1209;48.410;9.054;2022-12-20T06:22:09;96562.38;;;2.34;100.00
2397;BME280;1209;48.410;9.054;2022-12-20T06:24:35;96558.03;;;2.34;100.00
2397;BME280;1209;48.410;9.054;2022-12-20T06:27:01;96562.97;;;2.37;100.00
2397;BME280;1209;48.410;9.054;2022-12-20T06:29:27;96555.56;;;2.21;100.00
2397;BME280;1209;48.410;9.054;2022-12-20T06:31:52;96559.09;;;2.32;100.00
2397;BME280;1209;48.410;9.054;2022-12-20T06:34:18;96555.00;;;2.29;100.00
2397;BME280;1209;48.410;9.054;2022-12-20T06:36:43;96559.31;;;2.29;100.00
2397;BME280;1209;48.410;9.054;2022-12-20T06:39:09;96552.88;;;2.12;100.00
2397;BME280;1209;48.410;9.054;2022-12-20T06:41:35;96557.78;;;2.26;100.00
2397;BME280;1209;48.410;9.054;2022-12-20T06:44:00;96549.13;;;2.27;100.00
2397;BME280;1209;48.410;9.054;2022-12-20T06:46:25;96552.19;;;2.32;100.00
2397;BME280;1209;48.410;9.054;2022-12-20T06:48:51;96549.38;;;2.35;100.00
2397;BME280;1209;48.410;9.054;2022-12-20T06:51:17;96542.22;;;2.28;100.00
2397;BME280;1209;48.410;9.054;2022-12-20T06:53:42;96536.72;;;2.21;100.00
2397;BME280;1209;48.410;9.054;2022-12-20T06:56:07;96534.38;;;2.29;100.00
2397;BME280;1209;48.410;9.054;2022-12-20T06:58:33;96546.44;;;2.29;100.00
2397;BME280;1209;48.410;9.054;2022-12-20T07:00:58;96552.69;;;2.37;100.00
2397;BME280;1209;48.410;9.054;2022-12-20T07:03:24;96542.56;;;2.34;100.00
2397;BME280;1209;48.410;9.054;2022-12-20T07:05:53;96543.88;;;2.40;100.00
2397;BME280;1209;48.410;9.054;2022-12-20T07:08:20;96552.19;;;2.43;100.00
2397;BME280;1209;48.410;9.054;2022-12-20T07:10:45;96554.16;;;2.29;100.00
2397;BME280;1209;48.410;9.054;2022-12-20T07:13:11;96552.44;;;2.40;100.00
2397;BME280;1209;48.410;9.054;2022-12-20T07:15:36;96556.78;;;2.40;100.00
2397;BME280;1209;48.410;9.054;2022-12-20T07:18:02;96556.88;;;2.38;100.00
2397;BME280;1209;48.410;9.054;2022-12-20T07:20:28;96558.53;;;2.39;100.00
2397;BME280;1209;48.410;9.054;2022-12-20T07:22:53;96565.69;;;2.47;100.00
2397;BME280;1209;48.410;9.054;2022-12-20T07:25:19;96559.94;;;2.43;100.00
2397;BME280;1209;48.410;9.054;2022-12-20T07:27:47;96556.06;;;2.49;100.00
2397;BME280;1209;48.410;9.054;2022-12-20T07:30:17;96556.31;;;2.46;100.00
2397;BME280;1209;48.410;9.054;2022-12-20T07:32:43;96552.78;;;2.58;100.00
2397;BME280;1209;48.410;9.054;2022-12-20T07:35:10;96551.38;;;2.65;100.00
2397;BME280;1209;48.410;9.054;2022-12-20T07:37:35;96562.16;;;2.59;100.00
2397;BME280;1209;48.410;9.054;2022-12-20T07:40:01;96557.81;;;2.48;100.00
2397;BME280;1209;48.410;9.054;2022-12-20T07:42:26;96556.06;;;2.49;100.00
2397;BME280;1209;48.410;9.054;2022-12-20T07:44:52;96554.53;;;2.46;100.00
2397;BME280;1209;48.410;9.054;2022-12-20T07:47:17;96545.53;;;2.52;100.00
2397;BME280;1209;48.410;9.054;2022-12-20T07:49:42;96541.41;;;2.61;100.00
2397;BME280;1209;48.410;9.054;2022-12-20T07:52:09;96541.63;;;2.69;100.00
2397;BME280;1209;48.410;9.054;2022-12-20T07:54:41;96544.56;;;2.64;100.00
2397;BME280;1209;48.410;9.054;2022-12-20T07:57:14;96546.53;;;2.72;100.00
2397;BME280;1209;48.410;9.054;2022-12-20T07:59:44;96540.94;;;2.67;100.00
2397;BME280;1209;48.410;9.054;2022-12-20T08:02:14;96544.53;;;2.75;100.00
2397;BME280;1209;48.410;9.054;2022-12-20T08:04:40;96540.56;;;2.71;100.00
2397;BME280;1209;48.410;9.054;2022-12-20T08:07:06;96545.81;;;2.81;100.00
2397;BME280;1209;48.410;9.054;2022-12-20T08:09:35;96560.34;;;2.82;100.00
2397;BME280;1209;48.410;9.054;2022-12-20T08:12:02;96549.84;;;2.85;100.00
2397;BME280;1209;48.410;9.054;2022-12-20T08:14:28;96545.25;;;2.89;100.00
2397;BME280;1209;48.410;9.054;2022-12-20T08:16:53;96554.16;;;2.96;100.00
2397;BME280;1209;48.410;9.054;2022-12-20T08:19:19;96551.31;;;2.99;100.00
2397;BME280;1209;48.410;9.054;2022-12-20T08:21:44;96545.47;;;2.97;100.00
2397;BME280;1209;48.410;9.054;2022-12-20T08:24:09;96546.94;;;3.10;100.00
2397;BME280;1209;48.410;9.054;2022-12-20T08:26:38;96542.78;;;2.98;100.00
2397;BME280;1209;48.410;9.054;2022-12-20T08:29:04;96538.47;;;2.88;100.00
2397;BME280;1209;48.410;9.054;2022-12-20T08:31:29;96539.84;;;2.92;100.00
2397;BME280;1209;48.410;9.054;2022-12-20T08:33:55;96526.03;;;2.93;100.00
2397;BME280;1209;48.410;9.054;2022-12-20T08:36:20;96525.41;;;3.00;100.00
2397;BME280;1209;48.410;9.054;2022-12-20T08:38:45;96522.88;;;2.89;100.00
2397;BME280;1209;48.410;9.054;2022-12-20T08:41:13;96506.88;;;3.06;100.00
2397;BME280;1209;48.410;9.054;2022-12-20T08:43:39;96507.44;;;3.10;100.00
2397;BME280;1209;48.410;9.054;2022-12-20T08:46:05;96510.84;;;3.10;100.00
2397;BME280;1209;48.410;9.054;2022-12-20T08:48:32;96506.03;;;3.06;100.00
2397;BME280;1209;48.410;9.054;2022-12-20T08:50:59;96514.38;;;3.30;100.00
2397;BME280;1209;48.410;9.054;2022-12-20T08:53:25;96518.97;;;3.27;100.00
2397;BME280;1209;48.410;9.054;2022-12-20T08:55:51;96525.22;;;3.24;100.00
2397;BME280;1209;48.410;9.054;2022-12-20T08:58:17;96519.59;;;3.19;100.00
2397;BME280;1209;48.410;9.054;2022-12-20T09:00:43;96520.28;;;3.21;100.00
2397;BME280;1209;48.410;9.054;2022-12-20T09:03:08;96528.41;;;3.16;100.00
2397;BME280;1209;48.410;9.054;2022-12-20T09:05:35;96530.38;;;3.24;100.00
2397;BME280;1209;48.410;9.054;2022-12-20T09:08:01;96527.22;;;3.21;100.00
2397;BME280;1209;48.410;9.054;2022-12-20T09:10:26;96517.31;;;3.05;100.00
2397;BME280;1209;48.410;9.054;2022-12-20T09:12:51;96519.28;;;3.12;100.00
2397;BME280;1209;48.410;9.054;2022-12-20T09:15:17;96521.47;;;3.17;100.00
2397;BME280;1209;48.410;9.054;2022-12-20T09:17:42;96518.78;;;3.19;100.00
2397;BME280;1209;48.410;9.054;2022-12-20T09:20:07;96515.81;;;3.23;100.00
2397;BME280;1209;48.410;9.054;2022-12-20T09:22:33;96521.13;;;3.22;100.00
2397;BME280;1209;48.410;9.054;2022-12-20T09:24:58;96508.53;;;3.28;100.00
2397;BME280;1209;48.410;9.054;2022-12-20T09:27:24;96515.69;;;3.57;100.00
2397;BME280;1209;48.410;9.054;2022-12-20T09:29:49;96501.59;;;3.82;100.00
2397;BME280;1209;48.410;9.054;2022-12-20T09:32:14;96509.72;;;3.98;100.00
2397;BME280;1209;48.410;9.054;2022-12-20T09:34:39;96505.03;;;4.13;100.00
2397;BME280;1209;48.410;9.054;2022-12-20T09:37:05;96505.84;;;4.13;100.00
2397;BME280;1209;48.410;9.054;2022-12-20T09:39:30;96500.59;;;4.24;100.00
2397;BME280;1209;48.410;9.054;2022-12-20T09:41:56;96504.31;;;4.31;100.00
2397;BME280;1209;48.410;9.054;2022-12-20T09:44:26;96503.09;;;4.35;100.00
2397;BME280;1209;48.410;9.054;2022-12-20T09:46:56;96503.78;;;4.37;100.00
2397;BME280;1209;48.410;9.054;2022-12-20T09:49:31;96491.81;;;4.36;100.00
2397;BME280;1209;48.410;9.054;2022-12-20T09:55:05;96495.78;;;4.40;100.00
2397;BME280;1209;48.410;9.054;2022-12-20T10:00:24;96490.38;;;4.53;100.00
2397;BME280;1209;48.410;9.054;2022-12-20T10:02:49;96485.47;;;4.60;100.00
2397;BME280;1209;48.410;9.054;2022-12-20T10:08:10;96474.72;;;4.64;100.00
2397;BME280;1209;48.410;9.054;2022-12-20T10:13:49;96473.22;;;4.62;100.00
2397;BME280;1209;48.410;9.054;2022-12-20T10:21:54;96463.00;;;4.51;100.00
2397;BME280;1209;48.410;9.054;2022-12-20T10:24:28;96458.09;;;4.48;100.00
2397;BME280;1209;48.410;9.054;2022-12-20T10:26:55;96450.59;;;4.45;100.00
2397;BME280;1209;48.410;9.054;2022-12-20T10:29:21;96450.22;;;4.49;100.00
2397;BME280;1209;48.410;9.054;2022-12-20T10:31:51;96448.84;;;4.45;100.00
2397;BME280;1209;48.410;9.054;2022-12-20T10:34:17;96440.50;;;4.32;100.00
2397;BME280;1209;48.410;9.054;2022-12-20T10:36:42;96442.41;;;4.30;100.00
2397;BME280;1209;48.410;9.054;2022-12-20T10:39:08;96444.03;;;4.31;100.00
2397;BME280;1209;48.410;9.054;2022-12-20T10:44:26;96435.41;;;4.21;100.00
2397;BME280;1209;48.410;9.054;2022-12-20T10:46:54;96427.66;;;4.21;100.00
2397;BME280;1209;48.410;9.054;2022-12-20T10:49:34;96423.84;;;4.15;100.00
2397;BME280;1209;48.410;9.054;2022-12-20T10:52:10;96426.84;;;4.20;100.00
2397;BME280;1209;48.410;9.054;2022-12-20T10:54:38;96419.41;;;4.27;100.00
2397;BME280;1209;48.410;9.054;2022-12-20T10:57:20;96424.13;;;4.22;100.00
2397;BME280;1209;48.410;9.054;2022-12-20T11:00:00;96419.28;;;4.28;100.00
2397;BME280;1209;48.410;9.054;2022-12-20T11:07:57;96409.88;;;4.27;100.00
2397;BME280;1209;48.410;9.054;2022-12-20T11:10:28;96407.66;;;4.23;100.00
2397;BME280;1209;48.410;9.054;2022-12-20T11:13:01;96409.16;;;4.25;100.00
2397;BME280;1209;48.410;9.054;2022-12-20T11:15:33;96403.44;;;4.12;100.00
2397;BME280;1209;48.410;9.054;2022-12-20T11:18:05;96399.69;;;4.26;100.00
2397;BME280;1209;48.410;9.054;2022-12-20T11:23:42;96388.53;;;4.35;100.00
2397;BME280;1209;48.410;9.054;2022-12-20T11:26:49;96383.13;;;4.48;100.00
2397;BME280;1209;48.410;9.054;2022-12-20T11:29:31;96372.22;;;4.54;100.00
2397;BME280;1209;48.410;9.054;2022-12-20T11:35:06;96378.78;;;4.67;100.00
2397;BME280;1209;48.410;9.054;2022-12-20T11:37:47;96355.66;;;4.76;100.00
2397;BME280;1209;48.410;9.054;2022-12-20T11:40:26;96360.69;;;4.77;100.00
2397;BME280;1209;48.410;9.054;2022-12-20T11:45:39;96354.84;;;4.85;100.00
2397;BME280;1209;48.410;9.054;2022-12-20T11:51:23;96355.13;;;4.82;100.00
2397;BME280;1209;48.410;9.054;2022-12-20T11:54:01;96341.63;;;4.68;100.00
2397;BME280;1209;48.410;9.054;2022-12-20T12:01:50;96334.16;;;4.75;100.00
2397;BME280;1209;48.410;9.054;2022-12-20T12:04:24;96322.69;;;4.68;100.00
2397;BME280;1209;48.410;9.054;2022-12-20T12:06:57;96312.38;;;4.78;100.00
2397;BME280;1209;48.410;9.054;2022-12-20T12:09:30;96306.91;;;4.90;100.00
2397;BME280;1209;48.410;9.054;2022-12-20T12:12:02;96299.88;;;5.20;100.00
2397;BME280;1209;48.410;9.054;2022-12-20T12:14:45;96295.81;;;5.54;100.00
2397;BME280;1209;48.410;9.054;2022-12-20T12:17:31;96298.81;;;5.87;100.00
2397;BME280;1209;48.410;9.054;2022-12-20T12:20:17;96309.91;;;6.16;100.00
2397;BME280;1209;48.410;9.054;2022-12-20T12:22:46;96304.41;;;6.19;100.00
2397;BME280;1209;48.410;9.054;2022-12-20T12:25:16;96315.75;;;6.36;100.00
2397;BME280;1209;48.410;9.054;2022-12-20T12:27:42;96313.38;;;6.43;100.00
2397;BME280;1209;48.410;9.054;2022-12-20T12:30:12;96326.06;;;6.46;100.00
2397;BME280;1209;48.410;9.054;2022-12-20T12:32:42;96324.56;;;6.43;100.00
2397;BME280;1209;48.410;9.054;2022-12-20T12:46:14;96304.75;;;6.07;100.00
2397;BME280;1209;48.410;9.054;2022-12-20T12:49:03;96307.03;;;6.10;100.00
2397;BME280;1209;48.410;9.054;2022-12-20T12:51:36;96295.56;;;5.85;100.00
2397;BME280;1209;48.410;9.054;2022-12-20T12:54:15;96307.69;;;5.94;100.00
2397;BME280;1209;48.410;9.054;2022-12-20T12:56:46;96306.66;;;6.05;100.00
2397;BME280;1209;48.410;9.054;2022-12-20T13:04:54;96301.72;;;6.11;100.00
2397;BME280;1209;48.410;9.054;2022-12-20T13:09:55;96303.91;;;6.06;100.00
2397;BME280;1209;48.410;9.054;2022-12-20T13:15:02;96299.84;;;6.04;100.00
2397;BME280;1209;48.410;9.054;2022-12-20T13:18:00;96302.28;;;6.05;100.00
2397;BME280;1209;48.410;9.054;2022-12-20T13:20:41;96292.59;;;6.07;100.00
2397;BME280;1209;48.410;9.054;2022-12-20T13:25:33;96292.88;;;6.04;100.00
2397;BME280;1209;48.410;9.054;2022-12-20T13:33:48;96283.78;;;6.00;100.00
2397;BME280;1209;48.410;9.054;2022-12-20T13:41:45;96273.59;;;5.89;100.00
2397;BME280;1209;48.410;9.054;2022-12-20T13:46:49;96257.19;;;5.71;100.00
2397;BME280;1209;48.410;9.054;2022-12-20T13:49:31;96255.78;;;5.76;100.00
2397;BME280;1209;48.410;9.054;2022-12-20T13:54:43;96234.31;;;5.93;100.00
2397;BME280;1209;48.410;9.054;2022-12-20T13:57:15;96232.09;;;5.71;100.00
2397;BME280;1209;48.410;9.054;2022-12-20T13:59:45;96227.34;;;5.94;100.00
2397;BME280;1209;48.410;9.054;2022-12-20T14:02:19;96220.34;;;6.22;100.00
2397;BME280;1209;48.410;9.054;2022-12-20T14:04:54;96213.59;;;6.29;100.00
2397;BME280;1209;48.410;9.054;2022-12-20T14:07:20;96217.00;;;6.29;100.00
2397;BME280;1209;48.410;9.054;2022-12-20T14:09:46;96212.75;;;6.46;100.00
2397;BME280;1209;48.410;9.054;2022-12-20T14:12:13;96207.16;;;6.59;100.00
2397;BME280;1209;48.410;9.054;2022-12-20T14:14:47;96216.81;;;6.67;100.00
2397;BME280;1209;48.410;9.054;2022-12-20T14:17:15;96202.41;;;6.72;100.00
2397;BME280;1209;48.410;9.054;2022-12-20T14:19:40;96202.25;;;6.74;100.00
2397;BME280;1209;48.410;9.054;2022-12-20T14:22:08;96211.16;;;6.71;100.00
2397;BME280;1209;48.410;9.054;2022-12-20T14:24:35;96222.88;;;6.57;100.00
2397;BME280;1209;48.410;9.054;2022-12-20T14:27:02;96214.97;;;6.41;100.00
2397;BME280;1209;48.410;9.054;2022-12-20T14:29:29;96216.56;;;6.16;100.00
2397;BME280;1209;48.410;9.054;2022-12-20T14:31:55;96213.19;;;6.06;100.00
2397;BME280;1209;48.410;9.054;2022-12-20T14:34:26;96216.00;;;5.95;100.00
2397;BME280;1209;48.410;9.054;2022-12-20T14:37:31;96230.44;;;5.97;100.00
2397;BME280;1209;48.410;9.054;2022-12-20T14:42:28;96234.94;;;5.78;100.00
2397;BME280;1209;48.410;9.054;2022-12-20T14:45:05;96228.88;;;5.59;100.00
2397;BME280;1209;48.410;9.054;2022-12-20T14:47:31;96226.44;;;5.58;100.00
2397;BME280;1209;48.410;9.054;2022-12-20T14:49:59;96226.44;;;5.30;100.00
2397;BME280;1209;48.410;9.054;2022-12-20T14:52:37;96224.38;;;5.34;100.00
2397;BME280;1209;48.410;9.054;2022-12-20T14:55:22;96215.34;;;5.38;100.00
2397;BME280;1209;48.410;9.054;2022-12-20T14:57:56;96204.03;;;5.39;100.00
2397;BME280;1209;48.410;9.054;2022-12-20T15:00:29;96195.69;;;5.45;100.00
2397;BME280;1209;48.410;9.054;2022-12-20T15:08:11;96202.34;;;5.48;100.00
2397;BME280;1209;48.410;9.054;2022-12-20T15:10:36;96196.94;;;5.41;100.00
2397;BME280;1209;48.410;9.054;2022-12-20T15:13:02;96185.06;;;5.21;100.00
2397;BME280;1209;48.410;9.054;2022-12-20T15:15:28;96174.59;;;5.13;100.00
2397;BME280;1209;48.410;9.054;2022-12-20T15:17:53;96183.44;;;5.10;100.00
2397;BME280;1209;48.410;9.054;2022-12-20T15:20:18;96190.50;;;5.18;100.00